Hua Xiang 668 — BLBR — position and weather

sailwx.info

Track history (hours):
 
Tides and Currents Weather Stations Pressure Air Temp Water Temp Dewpoint Dewpoint Depression Visibility Wind Speed Wind Dir Waves Ship Positions

Hua Xiang 668

Last reported at 2018-Jun-22 11:34 UTC. Time now 2018-Jun-23 14:11 UTC.
Position N 22°13' E 120°18'.

Length 115 m; draft 6.1 m.

Type: Cargo ship. MMSI: 412422380.

Date/timePositionNaut miles runAvg speedWind from/ knotsBaromVisibWave heightAir tempDewpointWater temp
2018-Jun-22 11:34N 22°13' E 120°18'2 9.9
2018-Jun-22 11:25N 22°14' E 120°18'410.0
2018-Jun-22 10:59N 22°19' E 120°17'5 9.8
2018-Jun-22 10:30N 22°23' E 120°15'5 9.2
2018-Jun-22 10:00N 22°27' E 120°13'4 8.8
2018-Jun-22 09:30N 22°31' E 120°12'4 8.8
2018-Jun-22 09:00N 22°36' E 120°10'3 6.9
2018-Jun-22 08:30N 22°38' E 120°13'4 8.6
2018-Jun-22 08:00N 22°36' E 120°17'0 0.0
2018-Jun-22 07:26N 22°36' E 120°17'0 0.0
2018-Jun-22 06:56N 22°36' E 120°17'0 0.0
2018-Jun-22 06:26N 22°36' E 120°17'0 0.0
2018-Jun-22 05:56N 22°36' E 120°17'0 0.0
2018-Jun-22 05:20N 22°36' E 120°17'0 0.0
2018-Jun-22 04:56N 22°36' E 120°17'0 0.0
2018-Jun-22 04:26N 22°36' E 120°17'0 0.0
2018-Jun-22 03:44N 22°36' E 120°17'0 0.0
2018-Jun-22 03:26N 22°36' E 120°17'0 0.0
2018-Jun-22 02:56N 22°36' E 120°17'0 0.0
2018-Jun-22 02:20N 22°36' E 120°17'0 0.0
2018-Jun-22 01:56N 22°36' E 120°17'0 0.0
2018-Jun-22 01:26N 22°36' E 120°17'0 0.0
2018-Jun-22 00:44N 22°36' E 120°17'0 0.0
2018-Jun-22 00:26N 22°36' E 120°17'0 0.0
2018-Jun-21 23:56N 22°36' E 120°17'0 0.0
2018-Jun-21 23:26N 22°36' E 120°17'0 0.0
2018-Jun-21 22:50N 22°36' E 120°17'0 0.0
2018-Jun-21 22:26N 22°36' E 120°17'0 0.0
2018-Jun-21 21:56N 22°36' E 120°17'0 0.0
2018-Jun-21 21:26N 22°36' E 120°17'0 0.0
2018-Jun-21 20:50N 22°36' E 120°17'0 0.0
2018-Jun-21 20:26N 22°36' E 120°17'0 0.0
2018-Jun-21 19:50N 22°36' E 120°17'0 0.0
2018-Jun-21 19:26N 22°36' E 120°17'0 0.0
2018-Jun-21 18:56N 22°36' E 120°17'0 0.0
2018-Jun-21 18:26N 22°36' E 120°17'0 0.0
2018-Jun-21 17:56N 22°36' E 120°17'0 0.0
2018-Jun-21 17:26N 22°36' E 120°17'0 0.0
2018-Jun-21 16:56N 22°36' E 120°17'0 0.0
2018-Jun-21 16:26N 22°36' E 120°17'0 0.0
2018-Jun-21 15:55N 22°36' E 120°17'0 0.0
2018-Jun-21 15:25N 22°36' E 120°17'0 0.0
2018-Jun-21 14:55N 22°36' E 120°17'0 0.0
2018-Jun-21 14:25N 22°36' E 120°17'0 0.0
2018-Jun-21 13:55N 22°36' E 120°17'0 0.0
2018-Jun-21 13:19N 22°36' E 120°17'0 0.0
2018-Jun-21 12:49N 22°36' E 120°17'0 0.0
2018-Jun-21 12:25N 22°36' E 120°17'0 0.0
2018-Jun-21 11:55N 22°36' E 120°17'0 0.0
2018-Jun-21 11:25N 22°36' E 120°17'0 0.0
2018-Jun-21 10:49N 22°36' E 120°17'0 0.0
2018-Jun-21 10:19N 22°36' E 120°17'0 0.0
2018-Jun-21 09:55N 22°36' E 120°17'0 0.0
2018-Jun-21 09:25N 22°36' E 120°17'0 0.0
2018-Jun-21 08:49N 22°36' E 120°17'0 0.0
2018-Jun-21 08:25N 22°36' E 120°17'0 0.0
2018-Jun-21 07:55N 22°36' E 120°17'0 0.0
2018-Jun-21 07:19N 22°36' E 120°17'0 0.0
2018-Jun-21 06:55N 22°36' E 120°17'0 0.0
2018-Jun-21 06:25N 22°36' E 120°17'0 0.0
2018-Jun-21 05:55N 22°36' E 120°17'0 0.0
2018-Jun-21 05:25N 22°36' E 120°17'0 0.0
2018-Jun-21 04:55N 22°36' E 120°17'0 0.0
2018-Jun-21 04:13N 22°36' E 120°17'0 0.0
2018-Jun-21 03:55N 22°36' E 120°17'0 0.0
2018-Jun-21 03:13N 22°36' E 120°17'0 0.0
2018-Jun-21 02:55N 22°36' E 120°17'0 0.0
2018-Jun-21 02:19N 22°36' E 120°17'0 0.0
2018-Jun-21 01:55N 22°36' E 120°17'0 0.0
2018-Jun-21 01:25N 22°36' E 120°17'0 0.0
2018-Jun-21 00:55N 22°36' E 120°17'0 0.0
2018-Jun-21 00:25N 22°36' E 120°17'0 0.0
2018-Jun-20 23:55N 22°36' E 120°17'0 0.0
2018-Jun-20 23:25N 22°36' E 120°17'0 0.0
2018-Jun-20 22:55N 22°36' E 120°17'0 0.0
2018-Jun-20 22:25N 22°36' E 120°17'0 0.0
2018-Jun-20 21:55N 22°36' E 120°17'0 0.0
2018-Jun-20 21:25N 22°36' E 120°17'0 0.0
2018-Jun-20 20:55N 22°36' E 120°17'0 0.0
2018-Jun-20 20:25N 22°36' E 120°17'0 0.0
2018-Jun-20 19:55N 22°36' E 120°17'0 0.0
2018-Jun-20 19:19N 22°36' E 120°17'0 0.0
2018-Jun-20 18:49N 22°36' E 120°17'0 0.0
2018-Jun-20 18:25N 22°36' E 120°17'0 0.0
2018-Jun-20 17:55N 22°36' E 120°17'0 0.0
2018-Jun-20 17:25N 22°36' E 120°17'0 0.0
2018-Jun-20 16:55N 22°36' E 120°17'0 0.0
2018-Jun-20 16:25N 22°36' E 120°17'0 0.0
2018-Jun-20 15:55N 22°36' E 120°17'0 0.1
2018-Jun-20 15:25N 22°36' E 120°17'0 0.1
2018-Jun-20 14:55N 22°36' E 120°17'0 0.0
2018-Jun-20 14:25N 22°36' E 120°17'0 0.0
2018-Jun-20 13:55N 22°36' E 120°17'0 0.0
2018-Jun-20 13:30N 22°36' E 120°17'0 0.4
2018-Jun-20 13:00N 22°36' E 120°17'3 5.8
2018-Jun-20 12:30N 22°38' E 120°14'2 5.0
2018-Jun-20 12:00N 22°36' E 120°12'5 9.5
2018-Jun-20 11:30N 22°31' E 120°13'5 9.2
2018-Jun-20 11:00N 22°27' E 120°14'5 9.1
2018-Jun-20 10:30N 22°23' E 120°15'5 8.9
2018-Jun-20 09:59N 22°18' E 120°17'  
Track history (hours):
 
Tides and Currents Weather Stations Pressure Air Temp Water Temp Dewpoint Dewpoint Depression Visibility Wind Speed Wind Dir Waves Ship Positions

Hua Xiang 668

Last reported at 2018-Jun-22 11:34 UTC. Time now 2018-Jun-23 14:11 UTC.
Position N 22°13' E 120°18'.

Length 115 m; draft 6.1 m.

Type: Cargo ship. MMSI: 412422380.

Date/timePositionNaut miles runAvg speedWind from/ knotsBaromVisibWave heightAir tempDewpointWater temp
2018-Jun-22 11:34N 22°13' E 120°18'2 9.9
2018-Jun-22 11:25N 22°14' E 120°18'410.0
2018-Jun-22 10:59N 22°19' E 120°17'5 9.8
2018-Jun-22 10:30N 22°23' E 120°15'5 9.2
2018-Jun-22 10:00N 22°27' E 120°13'4 8.8
2018-Jun-22 09:30N 22°31' E 120°12'4 8.8
2018-Jun-22 09:00N 22°36' E 120°10'3 6.9
2018-Jun-22 08:30N 22°38' E 120°13'4 8.6
2018-Jun-22 08:00N 22°36' E 120°17'0 0.0
2018-Jun-22 07:26N 22°36' E 120°17'0 0.0
2018-Jun-22 06:56N 22°36' E 120°17'0 0.0
2018-Jun-22 06:26N 22°36' E 120°17'0 0.0
2018-Jun-22 05:56N 22°36' E 120°17'0 0.0
2018-Jun-22 05:20N 22°36' E 120°17'0 0.0
2018-Jun-22 04:56N 22°36' E 120°17'0 0.0
2018-Jun-22 04:26N 22°36' E 120°17'0 0.0
2018-Jun-22 03:44N 22°36' E 120°17'0 0.0
2018-Jun-22 03:26N 22°36' E 120°17'0 0.0
2018-Jun-22 02:56N 22°36' E 120°17'0 0.0
2018-Jun-22 02:20N 22°36' E 120°17'0 0.0
2018-Jun-22 01:56N 22°36' E 120°17'0 0.0
2018-Jun-22 01:26N 22°36' E 120°17'0 0.0
2018-Jun-22 00:44N 22°36' E 120°17'0 0.0
2018-Jun-22 00:26N 22°36' E 120°17'0 0.0
2018-Jun-21 23:56N 22°36' E 120°17'0 0.0
2018-Jun-21 23:26N 22°36' E 120°17'0 0.0
2018-Jun-21 22:50N 22°36' E 120°17'0 0.0
2018-Jun-21 22:26N 22°36' E 120°17'0 0.0
2018-Jun-21 21:56N 22°36' E 120°17'0 0.0
2018-Jun-21 21:26N 22°36' E 120°17'0 0.0
2018-Jun-21 20:50N 22°36' E 120°17'0 0.0
2018-Jun-21 20:26N 22°36' E 120°17'0 0.0
2018-Jun-21 19:50N 22°36' E 120°17'0 0.0
2018-Jun-21 19:26N 22°36' E 120°17'0 0.0
2018-Jun-21 18:56N 22°36' E 120°17'0 0.0
2018-Jun-21 18:26N 22°36' E 120°17'0 0.0
2018-Jun-21 17:56N 22°36' E 120°17'0 0.0
2018-Jun-21 17:26N 22°36' E 120°17'0 0.0
2018-Jun-21 16:56N 22°36' E 120°17'0 0.0
2018-Jun-21 16:26N 22°36' E 120°17'0 0.0
2018-Jun-21 15:55N 22°36' E 120°17'0 0.0
2018-Jun-21 15:25N 22°36' E 120°17'0 0.0
2018-Jun-21 14:55N 22°36' E 120°17'0 0.0
2018-Jun-21 14:25N 22°36' E 120°17'0 0.0
2018-Jun-21 13:55N 22°36' E 120°17'0 0.0
2018-Jun-21 13:19N 22°36' E 120°17'0 0.0
2018-Jun-21 12:49N 22°36' E 120°17'0 0.0
2018-Jun-21 12:25N 22°36' E 120°17'0 0.0
2018-Jun-21 11:55N 22°36' E 120°17'0 0.0
2018-Jun-21 11:25N 22°36' E 120°17'0 0.0
2018-Jun-21 10:49N 22°36' E 120°17'0 0.0
2018-Jun-21 10:19N 22°36' E 120°17'0 0.0
2018-Jun-21 09:55N 22°36' E 120°17'0 0.0
2018-Jun-21 09:25N 22°36' E 120°17'0 0.0
2018-Jun-21 08:49N 22°36' E 120°17'0 0.0
2018-Jun-21 08:25N 22°36' E 120°17'0 0.0
2018-Jun-21 07:55N 22°36' E 120°17'0 0.0
2018-Jun-21 07:19N 22°36' E 120°17'0 0.0
2018-Jun-21 06:55N 22°36' E 120°17'0 0.0
2018-Jun-21 06:25N 22°36' E 120°17'0 0.0
2018-Jun-21 05:55N 22°36' E 120°17'0 0.0
2018-Jun-21 05:25N 22°36' E 120°17'0 0.0
2018-Jun-21 04:55N 22°36' E 120°17'0 0.0
2018-Jun-21 04:13N 22°36' E 120°17'0 0.0
2018-Jun-21 03:55N 22°36' E 120°17'0 0.0
2018-Jun-21 03:13N 22°36' E 120°17'0 0.0
2018-Jun-21 02:55N 22°36' E 120°17'0 0.0
2018-Jun-21 02:19N 22°36' E 120°17'0 0.0
2018-Jun-21 01:55N 22°36' E 120°17'0 0.0
2018-Jun-21 01:25N 22°36' E 120°17'0 0.0
2018-Jun-21 00:55N 22°36' E 120°17'0 0.0
2018-Jun-21 00:25N 22°36' E 120°17'0 0.0
2018-Jun-20 23:55N 22°36' E 120°17'0 0.0
2018-Jun-20 23:25N 22°36' E 120°17'0 0.0
2018-Jun-20 22:55N 22°36' E 120°17'0 0.0
2018-Jun-20 22:25N 22°36' E 120°17'0 0.0
2018-Jun-20 21:55N 22°36' E 120°17'0 0.0
2018-Jun-20 21:25N 22°36' E 120°17'0 0.0
2018-Jun-20 20:55N 22°36' E 120°17'0 0.0
2018-Jun-20 20:25N 22°36' E 120°17'0 0.0
2018-Jun-20 19:55N 22°36' E 120°17'0 0.0
2018-Jun-20 19:19N 22°36' E 120°17'0 0.0
2018-Jun-20 18:49N 22°36' E 120°17'0 0.0
2018-Jun-20 18:25N 22°36' E 120°17'0 0.0
2018-Jun-20 17:55N 22°36' E 120°17'0 0.0
2018-Jun-20 17:25N 22°36' E 120°17'0 0.0
2018-Jun-20 16:55N 22°36' E 120°17'0 0.0
2018-Jun-20 16:25N 22°36' E 120°17'0 0.0
2018-Jun-20 15:55N 22°36' E 120°17'0 0.1
2018-Jun-20 15:25N 22°36' E 120°17'0 0.1
2018-Jun-20 14:55N 22°36' E 120°17'0 0.0
2018-Jun-20 14:25N 22°36' E 120°17'0 0.0
2018-Jun-20 13:55N 22°36' E 120°17'0 0.0
2018-Jun-20 13:30N 22°36' E 120°17'0 0.4
2018-Jun-20 13:00N 22°36' E 120°17'3 5.8
2018-Jun-20 12:30N 22°38' E 120°14'2 5.0
2018-Jun-20 12:00N 22°36' E 120°12'5 9.5
2018-Jun-20 11:30N 22°31' E 120°13'5 9.2
2018-Jun-20 11:00N 22°27' E 120°14'5 9.1
2018-Jun-20 10:30N 22°23' E 120°15'5 8.9
2018-Jun-20 09:59N 22°18' E 120°17'  

Dump ship's entire track history